sensor_id;sensor_type;location;lat;lon;timestamp;pressure;altitude;pressure_sealevel;temperature
76541;BMP280;65385;55.772;37.658;2024-03-07T00:00:45;100657.69;;;-3.99
76541;BMP280;65385;55.772;37.658;2024-03-07T00:01:46;100656.88;;;-4.00
76541;BMP280;65385;55.772;37.658;2024-03-07T00:02:48;100651.88;;;-4.01
76541;BMP280;65385;55.772;37.658;2024-03-07T00:03:49;100651.09;;;-4.02
76541;BMP280;65385;55.772;37.658;2024-03-07T00:04:50;100649.34;;;-4.01
76541;BMP280;65385;55.772;37.658;2024-03-07T00:05:51;100648.53;;;-4.02
76541;BMP280;65385;55.772;37.658;2024-03-07T00:06:52;100646.13;;;-4.03
76541;BMP280;65385;55.772;37.658;2024-03-07T00:07:53;100656.47;;;-4.05
76541;BMP280;65385;55.772;37.658;2024-03-07T00:08:54;100648.94;;;-4.06
76541;BMP280;65385;55.772;37.658;2024-03-07T00:09:55;100645.44;;;-4.05
76541;BMP280;65385;55.772;37.658;2024-03-07T00:10:56;100644.50;;;-4.04
76541;BMP280;65385;55.772;37.658;2024-03-07T00:11:57;100643.56;;;-4.03
76541;BMP280;65385;55.772;37.658;2024-03-07T00:12:57;100640.09;;;-4.02
76541;BMP280;65385;55.772;37.658;2024-03-07T00:13:58;100636.56;;;-4.01
76541;BMP280;65385;55.772;37.658;2024-03-07T00:14:58;100644.91;;;-3.99
76541;BMP280;65385;55.772;37.658;2024-03-07T00:15:59;100638.06;;;-3.99
76541;BMP280;65385;55.772;37.658;2024-03-07T00:16:59;100653.25;;;-3.97
76541;BMP280;65385;55.772;37.658;2024-03-07T00:18:00;100638.88;;;-3.98
76541;BMP280;65385;55.772;37.658;2024-03-07T00:19:01;100644.91;;;-3.99
76541;BMP280;65385;55.772;37.658;2024-03-07T00:20:02;100649.22;;;-4.00
76541;BMP280;65385;55.772;37.658;2024-03-07T00:21:05;100649.22;;;-4.00
76541;BMP280;65385;55.772;37.658;2024-03-07T00:22:05;100647.47;;;-3.99
76541;BMP280;65385;55.772;37.658;2024-03-07T00:23:06;100643.16;;;-3.99
76541;BMP280;65385;55.772;37.658;2024-03-07T00:24:06;100647.22;;;-3.96
76541;BMP280;65385;55.772;37.658;2024-03-07T00:25:07;100642.78;;;-3.94
76541;BMP280;65385;55.772;37.658;2024-03-07T00:26:09;100639.28;;;-3.93
76541;BMP280;65385;55.772;37.658;2024-03-07T00:27:10;100644.41;;;-3.93
76541;BMP280;65385;55.772;37.658;2024-03-07T00:28:10;100641.84;;;-3.93
76541;BMP280;65385;55.772;37.658;2024-03-07T00:29:11;100640.09;;;-3.93
76541;BMP280;65385;55.772;37.658;2024-03-07T00:30:12;100635.25;;;-3.96
76541;BMP280;65385;55.772;37.658;2024-03-07T00:31:18;100635.38;;;-3.97
76541;BMP280;65385;55.772;37.658;2024-03-07T00:32:23;100633.75;;;-3.98
76541;BMP280;65385;55.772;37.658;2024-03-07T00:33:24;100638.19;;;-4.00
76541;BMP280;65385;55.772;37.658;2024-03-07T00:34:25;100634.03;;;-4.01
76541;BMP280;65385;55.772;37.658;2024-03-07T00:35:26;100642.66;;;-4.02
76541;BMP280;65385;55.772;37.658;2024-03-07T00:36:27;100635.91;;;-4.03
76541;BMP280;65385;55.772;37.658;2024-03-07T00:37:28;100639.28;;;-4.03
76541;BMP280;65385;55.772;37.658;2024-03-07T00:38:29;100635.91;;;-4.03
76541;BMP280;65385;55.772;37.658;2024-03-07T00:39:30;100636.06;;;-4.05
76541;BMP280;65385;55.772;37.658;2024-03-07T00:40:32;100631.06;;;-4.06
76541;BMP280;65385;55.772;37.658;2024-03-07T00:41:32;100638.84;;;-4.08
76541;BMP280;65385;55.772;37.658;2024-03-07T00:42:33;100632.28;;;-4.10
76541;BMP280;65385;55.772;37.658;2024-03-07T00:43:34;100637.41;;;-4.10
76541;BMP280;65385;55.772;37.658;2024-03-07T00:44:35;100630.00;;;-4.13
76541;BMP280;65385;55.772;37.658;2024-03-07T00:45:35;100632.41;;;-4.12
76541;BMP280;65385;55.772;37.658;2024-03-07T00:46:36;100635.91;;;-4.13
76541;BMP280;65385;55.772;37.658;2024-03-07T00:47:37;100625.81;;;-4.14
76541;BMP280;65385;55.772;37.658;2024-03-07T00:48:38;100633.47;;;-4.14
76541;BMP280;65385;55.772;37.658;2024-03-07T00:49:38;100625.13;;;-4.17
76541;BMP280;65385;55.772;37.658;2024-03-07T00:50:40;100623.28;;;-4.14
76541;BMP280;65385;55.772;37.658;2024-03-07T00:51:42;100621.53;;;-4.14
76541;BMP280;65385;55.772;37.658;2024-03-07T00:52:44;100628.13;;;-4.11
76541;BMP280;65385;55.772;37.658;2024-03-07T00:53:46;100625.56;;;-4.11
76541;BMP280;65385;55.772;37.658;2024-03-07T00:54:47;100626.38;;;-4.11
76541;BMP280;65385;55.772;37.658;2024-03-07T00:55:48;100622.88;;;-4.10
76541;BMP280;65385;55.772;37.658;2024-03-07T00:56:48;100621.16;;;-4.09
76541;BMP280;65385;55.772;37.658;2024-03-07T00:57:49;100616.69;;;-4.07
76541;BMP280;65385;55.772;37.658;2024-03-07T00:58:51;100617.63;;;-4.08
76541;BMP280;65385;55.772;37.658;2024-03-07T00:59:51;100619.38;;;-4.09
76541;BMP280;65385;55.772;37.658;2024-03-07T01:00:52;100615.34;;;-4.11
76541;BMP280;65385;55.772;37.658;2024-03-07T01:01:53;100618.03;;;-4.13
76541;BMP280;65385;55.772;37.658;2024-03-07T01:02:54;100611.41;;;-4.16
76541;BMP280;65385;55.772;37.658;2024-03-07T01:03:55;100620.97;;;-4.18
76541;BMP280;65385;55.772;37.658;2024-03-07T01:04:56;100615.88;;;-4.18
76541;BMP280;65385;55.772;37.658;2024-03-07T01:05:56;100616.81;;;-4.19
76541;BMP280;65385;55.772;37.658;2024-03-07T01:06:57;100621.78;;;-4.17
76541;BMP280;65385;55.772;37.658;2024-03-07T01:07:59;100612.34;;;-4.17
76541;BMP280;65385;55.772;37.658;2024-03-07T01:08:59;100621.53;;;-4.14
76541;BMP280;65385;55.772;37.658;2024-03-07T01:10:00;100622.34;;;-4.13
76541;BMP280;65385;55.772;37.658;2024-03-07T01:11:05;100619.91;;;-4.15
76541;BMP280;65385;55.772;37.658;2024-03-07T01:12:13;100619.34;;;-4.19
76541;BMP280;65385;55.772;37.658;2024-03-07T01:13:13;100620.28;;;-4.20
76541;BMP280;65385;55.772;37.658;2024-03-07T01:14:19;100619.59;;;-4.22
76541;BMP280;65385;55.772;37.658;2024-03-07T01:15:20;100616.25;;;-4.22
76541;BMP280;65385;55.772;37.658;2024-03-07T01:16:21;100622.03;;;-4.20
76541;BMP280;65385;55.772;37.658;2024-03-07T01:17:21;100619.34;;;-4.19
76541;BMP280;65385;55.772;37.658;2024-03-07T01:18:22;100609.41;;;-4.22
76541;BMP280;65385;55.772;37.658;2024-03-07T01:19:23;100613.69;;;-4.22
76541;BMP280;65385;55.772;37.658;2024-03-07T01:20:24;100612.25;;;-4.25
76541;BMP280;65385;55.772;37.658;2024-03-07T01:21:25;100615.72;;;-4.26
76541;BMP280;65385;55.772;37.658;2024-03-07T01:22:26;100606.72;;;-4.30
76541;BMP280;65385;55.772;37.658;2024-03-07T01:23:27;100612.09;;;-4.33
76541;BMP280;65385;55.772;37.658;2024-03-07T01:24:30;100620.69;;;-4.34
76541;BMP280;65385;55.772;37.658;2024-03-07T01:25:31;100607.94;;;-4.34
76541;BMP280;65385;55.772;37.658;2024-03-07T01:26:34;100603.75;;;-4.35
76541;BMP280;65385;55.772;37.658;2024-03-07T01:27:35;100604.69;;;-4.36
76541;BMP280;65385;55.772;37.658;2024-03-07T01:28:35;100609.66;;;-4.34
76541;BMP280;65385;55.772;37.658;2024-03-07T01:29:36;100615.59;;;-4.34
76541;BMP280;65385;55.772;37.658;2024-03-07T01:30:37;100608.88;;;-4.35
76541;BMP280;65385;55.772;37.658;2024-03-07T01:31:37;100610.34;;;-4.32
76541;BMP280;65385;55.772;37.658;2024-03-07T01:32:38;100614.66;;;-4.33
76541;BMP280;65385;55.772;37.658;2024-03-07T01:33:38;100605.09;;;-4.31
76541;BMP280;65385;55.772;37.658;2024-03-07T01:34:39;100606.72;;;-4.30
76541;BMP280;65385;55.772;37.658;2024-03-07T01:35:40;100611.97;;;-4.31
76541;BMP280;65385;55.772;37.658;2024-03-07T01:36:40;100603.50;;;-4.32
76541;BMP280;65385;55.772;37.658;2024-03-07T01:37:41;100610.19;;;-4.31
76541;BMP280;65385;55.772;37.658;2024-03-07T01:38:42;100601.75;;;-4.31
76541;BMP280;65385;55.772;37.658;2024-03-07T01:39:43;100608.44;;;-4.30
76541;BMP280;65385;55.772;37.658;2024-03-07T01:40:44;100603.50;;;-4.32
76541;BMP280;65385;55.772;37.658;2024-03-07T01:41:45;100608.59;;;-4.32
76541;BMP280;65385;55.772;37.658;2024-03-07T01:42:48;100606.88;;;-4.31
76541;BMP280;65385;55.772;37.658;2024-03-07T01:43:48;100604.31;;;-4.31
76541;BMP280;65385;55.772;37.658;2024-03-07T01:44:49;100602.53;;;-4.31
76541;BMP280;65385;55.772;37.658;2024-03-07T01:45:53;100609.41;;;-4.31
76541;BMP280;65385;55.772;37.658;2024-03-07T01:46:54;100604.31;;;-4.31
76541;BMP280;65385;55.772;37.658;2024-03-07T01:47:55;100603.50;;;-4.32
76541;BMP280;65385;55.772;37.658;2024-03-07T01:48:57;100602.69;;;-4.32
76541;BMP280;65385;55.772;37.658;2024-03-07T01:49:58;100600.28;;;-4.34
76541;BMP280;65385;55.772;37.658;2024-03-07T01:51:00;100596.78;;;-4.33
76541;BMP280;65385;55.772;37.658;2024-03-07T01:52:01;100600.94;;;-4.32
76541;BMP280;65385;55.772;37.658;2024-03-07T01:53:03;100599.22;;;-4.31
76541;BMP280;65385;55.772;37.658;2024-03-07T01:54:03;100596.78;;;-4.33
76541;BMP280;65385;55.772;37.658;2024-03-07T01:55:05;100593.28;;;-4.32
76541;BMP280;65385;55.772;37.658;2024-03-07T01:56:06;100590.06;;;-4.34
76541;BMP280;65385;55.772;37.658;2024-03-07T01:57:07;100593.44;;;-4.33
76541;BMP280;65385;55.772;37.658;2024-03-07T01:58:08;100592.84;;;-4.37
76541;BMP280;65385;55.772;37.658;2024-03-07T01:59:10;100590.19;;;-4.35
76541;BMP280;65385;55.772;37.658;2024-03-07T02:00:12;100589.38;;;-4.36
76541;BMP280;65385;55.772;37.658;2024-03-07T02:01:13;100593.56;;;-4.35
76541;BMP280;65385;55.772;37.658;2024-03-07T02:02:16;100593.69;;;-4.36
76541;BMP280;65385;55.772;37.658;2024-03-07T02:03:18;100593.78;;;-4.38
76541;BMP280;65385;55.772;37.658;2024-03-07T02:04:18;100594.06;;;-4.41
76541;BMP280;65385;55.772;37.658;2024-03-07T02:05:20;100589.88;;;-4.42
76541;BMP280;65385;55.772;37.658;2024-03-07T02:06:21;100594.31;;;-4.44
76541;BMP280;65385;55.772;37.658;2024-03-07T02:07:23;100591.09;;;-4.46
76541;BMP280;65385;55.772;37.658;2024-03-07T02:08:24;100594.03;;;-4.50
76541;BMP280;65385;55.772;37.658;2024-03-07T02:09:24;100589.88;;;-4.52
76541;BMP280;65385;55.772;37.658;2024-03-07T02:10:25;100586.78;;;-4.55
76541;BMP280;65385;55.772;37.658;2024-03-07T02:11:26;100592.81;;;-4.56
76541;BMP280;65385;55.772;37.658;2024-03-07T02:12:27;100586.09;;;-4.57
76541;BMP280;65385;55.772;37.658;2024-03-07T02:13:27;100587.00;;;-4.58
76541;BMP280;65385;55.772;37.658;2024-03-07T02:14:28;100585.41;;;-4.59
76541;BMP280;65385;55.772;37.658;2024-03-07T02:15:30;100587.00;;;-4.58
76541;BMP280;65385;55.772;37.658;2024-03-07T02:16:31;100583.66;;;-4.59
76541;BMP280;65385;55.772;37.658;2024-03-07T02:17:52;100579.66;;;-4.61
76541;BMP280;65385;55.772;37.658;2024-03-07T02:18:52;100580.56;;;-4.62
76541;BMP280;65385;55.772;37.658;2024-03-07T02:19:54;100578.97;;;-4.63
76541;BMP280;65385;55.772;37.658;2024-03-07T02:20:55;100580.84;;;-4.65
76541;BMP280;65385;55.772;37.658;2024-03-07T02:21:56;100573.31;;;-4.67
76541;BMP280;65385;55.772;37.658;2024-03-07T02:22:56;100572.50;;;-4.67
76541;BMP280;65385;55.772;37.658;2024-03-07T02:23:57;100578.56;;;-4.68
76541;BMP280;65385;55.772;37.658;2024-03-07T02:24:58;100573.59;;;-4.70
76541;BMP280;65385;55.772;37.658;2024-03-07T02:25:58;100573.59;;;-4.70
76541;BMP280;65385;55.772;37.658;2024-03-07T02:26:59;100572.78;;;-4.70
76541;BMP280;65385;55.772;37.658;2024-03-07T02:28:00;100576.25;;;-4.71
76541;BMP280;65385;55.772;37.658;2024-03-07T02:29:00;100575.44;;;-4.72
76541;BMP280;65385;55.772;37.658;2024-03-07T02:30:01;100577.28;;;-4.74
76541;BMP280;65385;55.772;37.658;2024-03-07T02:31:05;100581.59;;;-4.74
76541;BMP280;65385;55.772;37.658;2024-03-07T02:32:06;100572.47;;;-4.77
76541;BMP280;65385;55.772;37.658;2024-03-07T02:33:06;100571.78;;;-4.79
76541;BMP280;65385;55.772;37.658;2024-03-07T02:34:07;100576.88;;;-4.79
76541;BMP280;65385;55.772;37.658;2024-03-07T02:35:08;100569.38;;;-4.80
76541;BMP280;65385;55.772;37.658;2024-03-07T02:36:09;100567.75;;;-4.81
76541;BMP280;65385;55.772;37.658;2024-03-07T02:37:09;100572.19;;;-4.83
76541;BMP280;65385;55.772;37.658;2024-03-07T02:38:10;100571.63;;;-4.87
76541;BMP280;65385;55.772;37.658;2024-03-07T02:39:11;100564.09;;;-4.89
76541;BMP280;65385;55.772;37.658;2024-03-07T02:40:13;100568.56;;;-4.91
76541;BMP280;65385;55.772;37.658;2024-03-07T02:41:13;100566.00;;;-4.91
76541;BMP280;65385;55.772;37.658;2024-03-07T02:42:14;100564.38;;;-4.92
76541;BMP280;65385;55.772;37.658;2024-03-07T02:43:14;100566.94;;;-4.92
76541;BMP280;65385;55.772;37.658;2024-03-07T02:44:16;100565.19;;;-4.91
76541;BMP280;65385;55.772;37.658;2024-03-07T02:45:17;100562.75;;;-4.93
76541;BMP280;65385;55.772;37.658;2024-03-07T02:46:17;100567.84;;;-4.93
76541;BMP280;65385;55.772;37.658;2024-03-07T02:47:18;100563.66;;;-4.94
76541;BMP280;65385;55.772;37.658;2024-03-07T02:48:19;100565.41;;;-4.94
76541;BMP280;65385;55.772;37.658;2024-03-07T02:49:20;100564.59;;;-4.95
76541;BMP280;65385;55.772;37.658;2024-03-07T02:50:21;100564.59;;;-4.95
76541;BMP280;65385;55.772;37.658;2024-03-07T02:51:22;100567.97;;;-4.94
76541;BMP280;65385;55.772;37.658;2024-03-07T02:52:24;100555.34;;;-4.96
76541;BMP280;65385;55.772;37.658;2024-03-07T02:53:25;100556.28;;;-4.97
76541;BMP280;65385;55.772;37.658;2024-03-07T02:54:25;100563.28;;;-4.99
76541;BMP280;65385;55.772;37.658;2024-03-07T02:55:26;100558.16;;;-4.99
76541;BMP280;65385;55.772;37.658;2024-03-07T02:56:27;100563.28;;;-4.99
76541;BMP280;65385;55.772;37.658;2024-03-07T02:57:27;100559.09;;;-5.00
76541;BMP280;65385;55.772;37.658;2024-03-07T02:58:28;100562.34;;;-4.98
76541;BMP280;65385;55.772;37.658;2024-03-07T02:59:29;100569.19;;;-4.98
76541;BMP280;65385;55.772;37.658;2024-03-07T03:00:29;100563.28;;;-4.99
76541;BMP280;65385;55.772;37.658;2024-03-07T03:01:30;100563.38;;;-5.00
76541;BMP280;65385;55.772;37.658;2024-03-07T03:02:30;100560.03;;;-5.01
76541;BMP280;65385;55.772;37.658;2024-03-07T03:03:31;100559.09;;;-5.00
76541;BMP280;65385;55.772;37.658;2024-03-07T03:04:32;100563.28;;;-4.99
76541;BMP280;65385;55.772;37.658;2024-03-07T03:05:33;100558.16;;;-4.99
76541;BMP280;65385;55.772;37.658;2024-03-07T03:06:34;100562.47;;;-4.99
76541;BMP280;65385;55.772;37.658;2024-03-07T03:07:35;100557.25;;;-4.98
76541;BMP280;65385;55.772;37.658;2024-03-07T03:08:36;100558.81;;;-4.97
76541;BMP280;65385;55.772;37.658;2024-03-07T03:09:36;100551.84;;;-4.95
76541;BMP280;65385;55.772;37.658;2024-03-07T03:10:40;100556.97;;;-4.95
76541;BMP280;65385;55.772;37.658;2024-03-07T03:11:41;100547.44;;;-4.93
76541;BMP280;65385;55.772;37.658;2024-03-07T03:12:42;100553.34;;;-4.92
76541;BMP280;65385;55.772;37.658;2024-03-07T03:13:43;100551.63;;;-4.92
76541;BMP280;65385;55.772;37.658;2024-03-07T03:14:43;100546.53;;;-4.92
76541;BMP280;65385;55.772;37.658;2024-03-07T03:15:44;100552.53;;;-4.93
76541;BMP280;65385;55.772;37.658;2024-03-07T03:16:44;100546.75;;;-4.95
76541;BMP280;65385;55.772;37.658;2024-03-07T03:17:47;100554.41;;;-4.95
76541;BMP280;65385;55.772;37.658;2024-03-07T03:18:47;100547.69;;;-4.96
76541;BMP280;65385;55.772;37.658;2024-03-07T03:19:49;100547.69;;;-4.96
76541;BMP280;65385;55.772;37.658;2024-03-07T03:20:51;100551.19;;;-4.97
76541;BMP280;65385;55.772;37.658;2024-03-07T03:21:53;100549.44;;;-4.96
76541;BMP280;65385;55.772;37.658;2024-03-07T03:22:55;100554.53;;;-4.96
76541;BMP280;65385;55.772;37.658;2024-03-07T03:23:56;100551.97;;;-4.96
76541;BMP280;65385;55.772;37.658;2024-03-07T03:24:57;100548.50;;;-4.95
76541;BMP280;65385;55.772;37.658;2024-03-07T03:25:57;100551.06;;;-4.95
76541;BMP280;65385;55.772;37.658;2024-03-07T03:26:58;100546.06;;;-4.97
76541;BMP280;65385;55.772;37.658;2024-03-07T03:27:59;100548.38;;;-4.94
76541;BMP280;65385;55.772;37.658;2024-03-07T03:28:59;100543.41;;;-4.95
76541;BMP280;65385;55.772;37.658;2024-03-07T03:30:00;100542.59;;;-4.96
76541;BMP280;65385;55.772;37.658;2024-03-07T03:31:00;100543.53;;;-4.97
76541;BMP280;65385;55.772;37.658;2024-03-07T03:32:01;100542.06;;;-4.99
76541;BMP280;65385;55.772;37.658;2024-03-07T03:33:02;100543.81;;;-5.00
76541;BMP280;65385;55.772;37.658;2024-03-07T03:34:02;100546.34;;;-5.00
76541;BMP280;65385;55.772;37.658;2024-03-07T03:35:03;100549.72;;;-4.99
76541;BMP280;65385;55.772;37.658;2024-03-07T03:36:04;100543.81;;;-5.00
76541;BMP280;65385;55.772;37.658;2024-03-07T03:37:05;100547.16;;;-4.99
76541;BMP280;65385;55.772;37.658;2024-03-07T03:38:06;100553.06;;;-4.99
76541;BMP280;65385;55.772;37.658;2024-03-07T03:39:07;100547.97;;;-4.99
76541;BMP280;65385;55.772;37.658;2024-03-07T03:40:12;100548.09;;;-5.00
76541;BMP280;65385;55.772;37.658;2024-03-07T03:41:16;100549.03;;;-5.01
76541;BMP280;65385;55.772;37.658;2024-03-07T03:42:17;100551.56;;;-5.01
76541;BMP280;65385;55.772;37.658;2024-03-07T03:43:18;100549.84;;;-5.01
76541;BMP280;65385;55.772;37.658;2024-03-07T03:44:19;100557.38;;;-4.99
76541;BMP280;65385;55.772;37.658;2024-03-07T03:45:19;100548.78;;;-4.98
76541;BMP280;65385;55.772;37.658;2024-03-07T03:46:22;100546.22;;;-4.98
76541;BMP280;65385;55.772;37.658;2024-03-07T03:47:23;100541.25;;;-5.00
76541;BMP280;65385;55.772;37.658;2024-03-07T03:48:24;100542.88;;;-4.99
76541;BMP280;65385;55.772;37.658;2024-03-07T03:49:24;100554.00;;;-5.00
76541;BMP280;65385;55.772;37.658;2024-03-07T03:50:26;100547.28;;;-5.01
76541;BMP280;65385;55.772;37.658;2024-03-07T03:51:26;100549.03;;;-5.01
76541;BMP280;65385;55.772;37.658;2024-03-07T03:52:27;100549.16;;;-5.03
76541;BMP280;65385;55.772;37.658;2024-03-07T03:53:29;100544.97;;;-5.04
76541;BMP280;65385;55.772;37.658;2024-03-07T03:54:30;100550.09;;;-5.04
76541;BMP280;65385;55.772;37.658;2024-03-07T03:55:30;100546.59;;;-5.03
76541;BMP280;65385;55.772;37.658;2024-03-07T03:56:32;100551.44;;;-5.00
76541;BMP280;65385;55.772;37.658;2024-03-07T03:57:33;100547.84;;;-4.97
76541;BMP280;65385;55.772;37.658;2024-03-07T03:58:34;100545.81;;;-4.94
76541;BMP280;65385;55.772;37.658;2024-03-07T03:59:34;100543.06;;;-4.91
76541;BMP280;65385;55.772;37.658;2024-03-07T04:00:35;100539.16;;;-4.85
76541;BMP280;65385;55.772;37.658;2024-03-07T04:01:36;100550.19;;;-4.84
76541;BMP280;65385;55.772;37.658;2024-03-07T04:02:36;100541.59;;;-4.83
76541;BMP280;65385;55.772;37.658;2024-03-07T04:03:40;100542.25;;;-4.81
76541;BMP280;65385;55.772;37.658;2024-03-07T04:04:40;100543.88;;;-4.80
76541;BMP280;65385;55.772;37.658;2024-03-07T04:05:41;100536.91;;;-4.78
76541;BMP280;65385;55.772;37.658;2024-03-07T04:06:42;100540.94;;;-4.76
76541;BMP280;65385;55.772;37.658;2024-03-07T04:07:42;100536.47;;;-4.74
76541;BMP280;65385;55.772;37.658;2024-03-07T04:08:43;100532.78;;;-4.70
76541;BMP280;65385;55.772;37.658;2024-03-07T04:09:45;100537.47;;;-4.65
76541;BMP280;65385;55.772;37.658;2024-03-07T04:10:46;100542.84;;;-4.59
76541;BMP280;65385;55.772;37.658;2024-03-07T04:11:46;100528.78;;;-4.53
76541;BMP280;65385;55.772;37.658;2024-03-07T04:12:47;100534.81;;;-4.44
76541;BMP280;65385;55.772;37.658;2024-03-07T04:13:47;100525.59;;;-4.36
76541;BMP280;65385;55.772;37.658;2024-03-07T04:14:48;100525.59;;;-4.26
76541;BMP280;65385;55.772;37.658;2024-03-07T04:15:48;100530.66;;;-4.17
76541;BMP280;65385;55.772;37.658;2024-03-07T04:16:49;100521.28;;;-4.06
76541;BMP280;65385;55.772;37.658;2024-03-07T04:17:50;100526.25;;;-3.95
76541;BMP280;65385;55.772;37.658;2024-03-07T04:18:50;100528.66;;;-3.84
76541;BMP280;65385;55.772;37.658;2024-03-07T04:19:52;100528.50;;;-3.73
76541;BMP280;65385;55.772;37.658;2024-03-07T04:20:52;100529.28;;;-3.63
76541;BMP280;65385;55.772;37.658;2024-03-07T04:21:53;100519.03;;;-3.53
76541;BMP280;65385;55.772;37.658;2024-03-07T04:22:54;100522.53;;;-3.45
76541;BMP280;65385;55.772;37.658;2024-03-07T04:23:56;100524.91;;;-3.33
76541;BMP280;65385;55.772;37.658;2024-03-07T04:24:56;100532.44;;;-3.22
76541;BMP280;65385;55.772;37.658;2024-03-07T04:25:57;100527.91;;;-3.11
76541;BMP280;65385;55.772;37.658;2024-03-07T04:26:59;100521.66;;;-2.98
76541;BMP280;65385;55.772;37.658;2024-03-07T04:28:00;100528.56;;;-2.81
76541;BMP280;65385;55.772;37.658;2024-03-07T04:29:00;100531.16;;;-2.63
76541;BMP280;65385;55.772;37.658;2024-03-07T04:30:01;100524.16;;;-2.44
76541;BMP280;65385;55.772;37.658;2024-03-07T04:31:04;100525.97;;;-2.18
76541;BMP280;65385;55.772;37.658;2024-03-07T04:32:05;100527.25;;;-1.97
76541;BMP280;65385;55.772;37.658;2024-03-07T04:33:07;100519.25;;;-1.76
76541;BMP280;65385;55.772;37.658;2024-03-07T04:34:07;100525.63;;;-1.54
76541;BMP280;65385;55.772;37.658;2024-03-07T04:35:08;100517.69;;;-1.35
76541;BMP280;65385;55.772;37.658;2024-03-07T04:36:10;100519.56;;;-1.11
76541;BMP280;65385;55.772;37.658;2024-03-07T04:37:12;100514.94;;;-0.91
76541;BMP280;65385;55.772;37.658;2024-03-07T04:38:13;100519.63;;;-0.70
76541;BMP280;65385;55.772;37.658;2024-03-07T04:39:15;100519.16;;;-0.50
76541;BMP280;65385;55.772;37.658;2024-03-07T04:40:45;100514.06;;;-0.17
76541;BMP280;65385;55.772;37.658;2024-03-07T04:41:47;100523.69;;;0.05
76541;BMP280;65385;55.772;37.658;2024-03-07T04:42:48;100520.44;;;0.27
76541;BMP280;65385;55.772;37.658;2024-03-07T04:43:53;100508.25;;;0.52
76541;BMP280;65385;55.772;37.658;2024-03-07T04:44:54;100520.06;;;0.77
76541;BMP280;65385;55.772;37.658;2024-03-07T04:45:55;100522.69;;;1.00
76541;BMP280;65385;55.772;37.658;2024-03-07T04:46:57;100519.34;;;1.23
76541;BMP280;65385;55.772;37.658;2024-03-07T04:47:58;100524.78;;;1.42
76541;BMP280;65385;55.772;37.658;2024-03-07T04:48:59;100514.22;;;1.60
76541;BMP280;65385;55.772;37.658;2024-03-07T04:49:59;100512.75;;;1.80
76541;BMP280;65385;55.772;37.658;2024-03-07T04:51:00;100521.72;;;1.99
76541;BMP280;65385;55.772;37.658;2024-03-07T04:52:02;100517.91;;;2.10
76541;BMP280;65385;55.772;37.658;2024-03-07T04:53:03;100521.03;;;2.20
76541;BMP280;65385;55.772;37.658;2024-03-07T04:54:04;100517.97;;;2.31
76541;BMP280;65385;55.772;37.658;2024-03-07T04:55:08;100515.91;;;2.41
76541;BMP280;65385;55.772;37.658;2024-03-07T04:56:10;100511.28;;;2.51
76541;BMP280;65385;55.772;37.658;2024-03-07T04:57:10;100514.63;;;2.66
76541;BMP280;65385;55.772;37.658;2024-03-07T04:58:11;100512.59;;;2.76
76541;BMP280;65385;55.772;37.658;2024-03-07T04:59:13;100514.50;;;2.89
76541;BMP280;65385;55.772;37.658;2024-03-07T05:00:14;100503.38;;;3.10
76541;BMP280;65385;55.772;37.658;2024-03-07T05:01:15;100499.91;;;3.24
76541;BMP280;65385;55.772;37.658;2024-03-07T05:02:16;100507.78;;;3.37
76541;BMP280;65385;55.772;37.658;2024-03-07T05:03:16;100507.50;;;3.53
76541;BMP280;65385;55.772;37.658;2024-03-07T05:04:17;100509.22;;;3.68
76541;BMP280;65385;55.772;37.658;2024-03-07T05:05:18;100504.91;;;3.81
76541;BMP280;65385;55.772;37.658;2024-03-07T05:06:22;100501.06;;;4.05
76541;BMP280;65385;55.772;37.658;2024-03-07T05:07:23;100508.69;;;4.20
76541;BMP280;65385;55.772;37.658;2024-03-07T05:08:23;100501.59;;;4.28
76541;BMP280;65385;55.772;37.658;2024-03-07T05:09:24;100497.59;;;4.32
76541;BMP280;65385;55.772;37.658;2024-03-07T05:10:26;100502.63;;;4.47
76541;BMP280;65385;55.772;37.658;2024-03-07T05:11:30;100506.63;;;4.56
76541;BMP280;65385;55.772;37.658;2024-03-07T05:12:32;100503.91;;;4.71
76541;BMP280;65385;55.772;37.658;2024-03-07T05:13:33;100504.09;;;4.76
76541;BMP280;65385;55.772;37.658;2024-03-07T05:14:33;100500.94;;;4.80
76541;BMP280;65385;55.772;37.658;2024-03-07T05:15:34;100498.53;;;4.92
76541;BMP280;65385;55.772;37.658;2024-03-07T05:16:34;100506.16;;;5.20
76541;BMP280;65385;55.772;37.658;2024-03-07T05:17:36;100505.38;;;5.32
76541;BMP280;65385;55.772;37.658;2024-03-07T05:18:38;100499.34;;;5.45
76541;BMP280;65385;55.772;37.658;2024-03-07T05:19:39;100503.75;;;5.51
76541;BMP280;65385;55.772;37.658;2024-03-07T05:20:39;100506.31;;;5.58
76541;BMP280;65385;55.772;37.658;2024-03-07T05:21:40;100500.91;;;5.59
76541;BMP280;65385;55.772;37.658;2024-03-07T05:22:41;100498.53;;;5.58
76541;BMP280;65385;55.772;37.658;2024-03-07T05:23:47;100500.91;;;5.66
76541;BMP280;65385;55.772;37.658;2024-03-07T05:24:49;100508.28;;;5.82
76541;BMP280;65385;55.772;37.658;2024-03-07T05:25:50;100496.84;;;5.90
76541;BMP280;65385;55.772;37.658;2024-03-07T05:26:51;100499.84;;;5.93
76541;BMP280;65385;55.772;37.658;2024-03-07T05:27:53;100498.84;;;6.01
76541;BMP280;65385;55.772;37.658;2024-03-07T05:28:54;100498.41;;;6.04
76541;BMP280;65385;55.772;37.658;2024-03-07T05:29:55;100505.56;;;6.15
76541;BMP280;65385;55.772;37.658;2024-03-07T05:30:55;100512.50;;;6.21
76541;BMP280;65385;55.772;37.658;2024-03-07T05:32:22;100500.84;;;6.37
76541;BMP280;65385;55.772;37.658;2024-03-07T05:33:23;100500.03;;;6.43
76541;BMP280;65385;55.772;37.658;2024-03-07T05:34:23;100500.91;;;6.61
76541;BMP280;65385;55.772;37.658;2024-03-07T05:35:24;100505.66;;;6.71
76541;BMP280;65385;55.772;37.658;2024-03-07T05:36:25;100503.84;;;6.78
76541;BMP280;65385;55.772;37.658;2024-03-07T05:37:27;100504.72;;;6.90
76541;BMP280;65385;55.772;37.658;2024-03-07T05:38:28;100502.34;;;7.14
76541;BMP280;65385;55.772;37.658;2024-03-07T05:39:29;100504.88;;;7.20
76541;BMP280;65385;55.772;37.658;2024-03-07T05:40:30;100499.22;;;7.23
76541;BMP280;65385;55.772;37.658;2024-03-07T05:41:30;100495.16;;;7.34
76541;BMP280;65385;55.772;37.658;2024-03-07T05:42:31;100491.75;;;7.33
76541;BMP280;65385;55.772;37.658;2024-03-07T05:43:32;100496.31;;;7.38
76541;BMP280;65385;55.772;37.658;2024-03-07T05:44:33;100497.63;;;7.29